createdAt,value
2023-04-16T00:01:36.293Z,71.15
2023-04-16T00:04:03.791Z,61.17
2023-04-16T00:06:31.831Z,56.42
2023-04-16T00:08:58.755Z,55.63
2023-04-16T00:11:25.576Z,55.28
2023-04-16T00:13:52.365Z,56.47
2023-04-16T00:16:19.196Z,55.58
2023-04-16T00:18:46.519Z,62.28
2023-04-16T00:21:13.259Z,68.00
2023-04-16T00:23:40.082Z,60.97
2023-04-16T00:26:06.846Z,54.13
2023-04-16T00:28:33.657Z,59.25
2023-04-16T00:31:01.771Z,62.40
2023-04-16T00:33:30.112Z,65.07
2023-04-16T00:35:56.880Z,53.50
2023-04-16T00:38:23.858Z,58.78
2023-04-16T00:40:50.635Z,57.10
2023-04-16T00:43:23.031Z,60.05
2023-04-16T00:45:50.320Z,55.33
2023-04-16T00:48:17.684Z,65.55
2023-04-16T00:50:44.505Z,75.22
2023-04-16T00:53:11.476Z,61.40
2023-04-16T00:55:39.243Z,61.22
2023-04-16T00:58:06.353Z,53.72
2023-04-16T01:00:33.256Z,58.28
2023-04-16T01:03:00.434Z,67.47
2023-04-16T01:05:27.414Z,62.58
2023-04-16T01:07:54.173Z,61.67
2023-04-16T01:10:21.079Z,61.05
2023-04-16T01:12:47.800Z,51.75
2023-04-16T01:15:17.870Z,61.78
2023-04-16T01:17:48.176Z,62.53
2023-04-16T01:20:15.463Z,57.25
2023-04-16T01:22:42.633Z,57.92
2023-04-16T01:25:13.476Z,59.90
2023-04-16T01:27:40.412Z,60.40
2023-04-16T01:30:07.837Z,57.45
2023-04-16T01:32:34.632Z,57.85
2023-04-16T01:35:01.590Z,58.95
2023-04-16T01:37:28.383Z,60.20
2023-04-16T01:39:55.609Z,59.03
2023-04-16T01:42:22.401Z,66.75
2023-04-16T01:44:49.182Z,62.05
2023-04-16T01:47:16.066Z,65.80
2023-04-16T01:49:45.636Z,53.30
2023-04-16T01:52:12.445Z,66.07
2023-04-16T01:54:39.209Z,60.05
2023-04-16T01:57:05.990Z,65.35
2023-04-16T01:59:32.742Z,58.92
2023-04-16T02:02:11.580Z,61.25
2023-04-16T02:04:40.009Z,66.95
2023-04-16T02:07:07.819Z,59.70
2023-04-16T02:09:38.998Z,54.75
2023-04-16T02:12:06.574Z,62.88
2023-04-16T02:14:33.965Z,64.38
2023-04-16T02:17:01.147Z,59.95
2023-04-16T02:19:28.742Z,69.45
2023-04-16T02:21:55.509Z,63.05
2023-04-16T02:24:22.317Z,66.72
2023-04-16T02:26:49.111Z,61.22
2023-04-16T02:29:16.644Z,66.90
2023-04-16T02:31:44.349Z,65.32
2023-04-16T02:34:11.269Z,64.65
2023-04-16T02:36:38.534Z,59.55
2023-04-16T02:39:05.314Z,64.88
2023-04-16T02:41:32.134Z,61.15
2023-04-16T02:43:58.999Z,60.65
2023-04-16T02:46:25.944Z,61.80
2023-04-16T02:48:53.250Z,67.28
2023-04-16T02:51:19.986Z,72.85
2023-04-16T02:53:46.795Z,62.38
2023-04-16T02:56:13.637Z,71.05
2023-04-16T02:58:40.671Z,65.25
2023-04-16T03:01:07.579Z,74.40
2023-04-16T03:03:34.390Z,72.15
2023-04-16T03:06:01.156Z,74.80
2023-04-16T03:08:30.674Z,67.97
2023-04-16T03:10:57.510Z,70.47
2023-04-16T03:13:24.261Z,69.82
2023-04-16T03:15:51.130Z,82.07
2023-04-16T03:18:17.991Z,82.72
2023-04-16T03:20:44.708Z,76.68
2023-04-16T03:23:11.550Z,75.47
2023-04-16T03:25:40.507Z,81.43
2023-04-16T03:28:07.346Z,74.60
2023-04-16T03:30:34.175Z,68.38
2023-04-16T03:33:01.294Z,73.85
2023-04-16T03:35:28.115Z,71.03
2023-04-16T03:37:54.903Z,65.07
2023-04-16T03:40:21.738Z,70.60
2023-04-16T03:42:48.507Z,70.95
2023-04-16T03:45:15.523Z,72.90
2023-04-16T03:47:42.290Z,70.35
2023-04-16T03:50:09.556Z,75.15
2023-04-16T03:52:36.740Z,80.13
2023-04-16T03:55:04.112Z,68.47
2023-04-16T03:57:30.873Z,73.50
2023-04-16T03:59:57.733Z,71.45
2023-04-16T04:02:24.577Z,68.10
2023-04-16T04:04:51.752Z,69.03
2023-04-16T04:07:18.630Z,73.45
2023-04-16T04:09:53.333Z,68.13
2023-04-16T04:12:20.121Z,72.53
2023-04-16T04:14:46.915Z,73.40
2023-04-16T04:17:13.777Z,66.20
2023-04-16T04:19:47.125Z,69.03
2023-04-16T04:22:17.744Z,60.47
2023-04-16T04:24:44.520Z,69.88
2023-04-16T04:27:11.281Z,79.13
2023-04-16T04:29:38.006Z,66.60
2023-04-16T04:32:05.139Z,73.50
2023-04-16T04:34:32.024Z,63.65
2023-04-16T04:36:59.521Z,65.80
2023-04-16T04:39:26.236Z,68.38
2023-04-16T04:41:53.013Z,73.68
2023-04-16T04:44:19.736Z,71.07
2023-04-16T04:46:46.544Z,77.75
2023-04-16T04:49:13.474Z,66.10
2023-04-16T04:51:40.548Z,63.63
2023-04-16T04:54:07.369Z,74.97
2023-04-16T04:56:36.661Z,67.93
2023-04-16T04:59:03.474Z,66.07
2023-04-16T05:01:30.450Z,72.55
2023-04-16T05:03:59.976Z,77.75
2023-04-16T05:06:29.086Z,74.38
2023-04-16T05:08:56.408Z,74.60
2023-04-16T05:11:23.287Z,74.78
2023-04-16T05:13:50.182Z,73.53
2023-04-16T05:16:17.099Z,80.00
2023-04-16T05:18:45.146Z,67.03
2023-04-16T05:21:11.942Z,70.22
2023-04-16T05:23:38.828Z,68.13
2023-04-16T05:26:05.587Z,85.47
2023-04-16T05:28:32.346Z,77.80
2023-04-16T05:30:59.187Z,65.78
2023-04-16T05:33:25.973Z,76.53
2023-04-16T05:35:52.895Z,73.68
2023-04-16T05:38:19.618Z,71.65
2023-04-16T05:40:46.423Z,68.68
2023-04-16T05:43:13.217Z,75.72
2023-04-16T05:45:41.415Z,73.97
2023-04-16T05:48:31.142Z,71.03
2023-04-16T05:50:57.981Z,70.68
2023-04-16T05:53:24.775Z,69.70
2023-04-16T05:55:51.630Z,72.28
2023-04-16T05:58:18.435Z,63.47
2023-04-16T06:00:45.428Z,70.10
2023-04-16T06:03:12.431Z,68.68
2023-04-16T06:05:39.480Z,70.32
2023-04-16T06:08:06.370Z,79.07
2023-04-16T06:10:33.171Z,77.30
2023-04-16T06:13:00.000Z,88.05
2023-04-16T06:15:29.272Z,68.00
2023-04-16T06:17:56.781Z,68.07
2023-04-16T06:20:24.565Z,62.92
2023-04-16T06:22:51.413Z,56.50
2023-04-16T06:25:18.338Z,63.58
2023-04-16T06:27:45.273Z,64.75
2023-04-16T06:30:13.564Z,67.47
2023-04-16T06:32:40.583Z,58.58
2023-04-16T06:35:07.767Z,65.70
2023-04-16T06:37:34.680Z,57.70
2023-04-16T06:40:01.811Z,58.28
2023-04-16T06:42:28.593Z,61.53
2023-04-16T06:44:55.363Z,62.10
2023-04-16T06:47:22.186Z,70.57
2023-04-16T06:49:49.008Z,73.38
2023-04-16T06:52:15.972Z,62.88
2023-04-16T06:54:42.781Z,56.55
2023-04-16T06:57:09.677Z,60.72
2023-04-16T06:59:36.410Z,73.47
2023-04-16T07:02:03.408Z,51.78
2023-04-16T07:04:30.507Z,55.00
2023-04-16T07:06:57.277Z,58.60
2023-04-16T07:09:24.138Z,58.53
2023-04-16T07:11:51.065Z,45.00
2023-04-16T07:14:17.922Z,50.40
2023-04-16T07:16:44.775Z,54.40
2023-04-16T07:19:11.960Z,53.72
2023-04-16T07:21:39.462Z,52.40
2023-04-16T07:24:06.331Z,48.88
2023-04-16T07:26:33.150Z,50.75
2023-04-16T07:28:59.908Z,47.15
2023-04-16T07:31:27.345Z,47.72
2023-04-16T07:33:54.184Z,43.78
2023-04-16T07:36:21.215Z,49.83
2023-04-16T07:38:48.255Z,47.83
2023-04-16T07:41:15.382Z,45.47
2023-04-16T07:43:44.639Z,48.25
2023-04-16T07:49:55.330Z,44.75
2023-04-16T07:52:22.077Z,47.25
2023-04-16T07:54:48.868Z,41.75
2023-04-16T07:57:16.448Z,44.03
2023-04-16T07:59:43.281Z,38.85
2023-04-16T08:02:14.765Z,38.95
2023-04-16T08:04:45.237Z,45.22
2023-04-16T08:07:12.305Z,41.63
2023-04-16T08:09:56.831Z,41.30
2023-04-16T08:12:23.836Z,38.85
2023-04-16T08:14:50.750Z,36.25
2023-04-16T08:17:18.016Z,183.70
2023-04-16T08:19:45.241Z,66.25
2023-04-16T08:22:15.457Z,78.90
2023-04-16T08:24:42.577Z,103.18
2023-04-16T08:27:18.621Z,32.22
2023-04-16T08:29:46.493Z,32.13
2023-04-16T08:32:13.532Z,33.03
2023-04-16T08:34:40.507Z,40.22
2023-04-16T08:37:07.339Z,29.40
2023-04-16T08:39:35.199Z,28.90
2023-04-16T08:42:06.214Z,27.00
2023-04-16T08:44:37.433Z,29.45
2023-04-16T08:47:08.465Z,27.35
2023-04-16T08:53:06.949Z,26.42
2023-04-16T08:55:39.196Z,27.02
2023-04-16T08:58:13.750Z,28.27
2023-04-16T09:00:41.300Z,27.37
2023-04-16T09:03:09.377Z,30.80
2023-04-16T09:05:37.380Z,28.38
2023-04-16T09:08:06.387Z,25.17
2023-04-16T09:11:10.147Z,25.35
2023-04-16T09:13:38.053Z,22.55
2023-04-16T09:16:07.474Z,28.65
2023-04-16T09:18:34.305Z,25.83
2023-04-16T09:21:03.040Z,32.60
2023-04-16T09:23:29.992Z,21.75
2023-04-16T09:25:59.176Z,23.60
2023-04-16T09:28:47.089Z,24.83
2023-04-16T09:31:16.832Z,23.25
2023-04-16T09:34:00.333Z,24.45
2023-04-16T09:36:27.820Z,24.63
2023-04-16T09:38:57.612Z,29.90
2023-04-16T09:41:27.278Z,21.25
2023-04-16T09:43:57.800Z,21.98
2023-04-16T09:46:31.887Z,27.98
2023-04-16T09:48:58.837Z,34.30
2023-04-16T09:51:26.860Z,26.10
2023-04-16T09:53:54.828Z,26.27
2023-04-16T09:56:26.000Z,34.15
2023-04-16T09:58:58.486Z,29.95
2023-04-16T10:01:25.576Z,26.38
2023-04-16T10:03:54.641Z,23.27
2023-04-16T10:06:23.675Z,24.85
2023-04-16T10:08:52.650Z,23.13
2023-04-16T10:11:20.844Z,24.63
2023-04-16T10:13:47.720Z,24.73
2023-04-16T10:16:14.806Z,22.55
2023-04-16T10:18:43.495Z,16.85
2023-04-16T10:21:15.315Z,19.08
2023-04-16T10:23:43.538Z,21.60
2023-04-16T10:26:10.647Z,21.15
2023-04-16T10:28:37.549Z,21.73
2023-04-16T10:31:08.122Z,20.38
2023-04-16T10:33:39.360Z,23.45
2023-04-16T10:36:14.120Z,24.48
2023-04-16T10:38:49.802Z,19.90
2023-04-16T10:41:16.944Z,20.40
2023-04-16T10:43:46.125Z,19.50
2023-04-16T10:46:33.996Z,19.65
2023-04-16T10:49:02.912Z,21.65
2023-04-16T10:51:35.629Z,22.20
2023-04-16T10:54:21.482Z,20.40
2023-04-16T10:56:49.793Z,21.00
2023-04-16T10:59:21.551Z,26.50
2023-04-16T11:01:55.079Z,26.67
2023-04-16T11:04:22.323Z,19.83
2023-04-16T11:07:16.658Z,21.27
2023-04-16T11:09:48.003Z,20.85
2023-04-16T11:12:27.204Z,20.02
2023-04-16T11:14:58.800Z,17.33
2023-04-16T11:17:30.822Z,15.38
2023-04-16T11:19:57.712Z,22.67
2023-04-16T11:22:27.594Z,18.45
2023-04-16T11:24:57.616Z,17.40
2023-04-16T11:27:25.498Z,15.82
2023-04-16T11:30:04.472Z,21.92
2023-04-16T11:32:33.653Z,14.90
2023-04-16T11:35:05.854Z,14.85
2023-04-16T11:37:37.826Z,13.50
2023-04-16T11:40:09.605Z,17.58
2023-04-16T11:42:37.961Z,18.42
2023-04-16T11:45:05.166Z,19.00
2023-04-16T11:47:32.448Z,19.02
2023-04-16T11:50:16.538Z,19.15
2023-04-16T11:52:43.386Z,17.10
2023-04-16T11:55:10.292Z,24.95
2023-04-16T11:57:38.214Z,17.13
2023-04-16T12:00:15.141Z,23.38
2023-04-16T12:02:44.119Z,26.98
2023-04-16T12:05:32.303Z,20.98
2023-04-16T12:08:00.690Z,22.63
2023-04-16T12:10:30.118Z,28.48
2023-04-16T12:13:16.992Z,28.08
2023-04-16T12:15:48.510Z,25.80
2023-04-16T12:18:16.589Z,21.20
2023-04-16T12:20:44.767Z,21.33
2023-04-16T12:23:32.037Z,18.45
2023-04-16T12:26:02.711Z,19.60
2023-04-16T12:28:35.108Z,24.10
2023-04-16T12:31:03.311Z,20.00
2023-04-16T12:33:30.762Z,18.55
2023-04-16T12:35:57.697Z,21.38
2023-04-16T12:38:25.619Z,19.25
2023-04-16T12:40:56.583Z,19.05
2023-04-16T12:43:23.817Z,24.60
2023-04-16T12:45:50.716Z,26.27
2023-04-16T12:48:17.588Z,21.13
2023-04-16T12:50:47.531Z,28.83
2023-04-16T12:53:14.398Z,26.92
2023-04-16T12:55:56.334Z,21.88
2023-04-16T12:58:54.472Z,21.58
2023-04-16T13:01:21.601Z,23.15
2023-04-16T13:03:48.797Z,17.95
2023-04-16T13:06:16.892Z,25.35
2023-04-16T13:08:45.653Z,22.25
2023-04-16T13:11:12.811Z,25.95
2023-04-16T13:13:39.664Z,19.80
2023-04-16T13:16:08.433Z,19.15
2023-04-16T13:18:40.097Z,18.02
2023-04-16T13:21:07.133Z,19.77
2023-04-16T13:23:35.109Z,20.10
2023-04-16T13:26:01.949Z,17.55
2023-04-16T13:28:28.820Z,20.08
2023-04-16T13:30:55.732Z,24.20
2023-04-16T13:33:22.768Z,14.68
2023-04-16T13:35:50.393Z,21.05
2023-04-16T13:38:17.999Z,17.58
2023-04-16T13:40:44.958Z,16.27
2023-04-16T13:43:13.725Z,22.75
2023-04-16T13:45:40.888Z,20.88
2023-04-16T13:48:07.861Z,20.45
2023-04-16T13:50:35.133Z,17.80
2023-04-16T13:53:02.194Z,15.50
2023-04-16T13:55:31.198Z,22.67
2023-04-16T13:57:58.160Z,19.25
2023-04-16T14:00:26.419Z,23.15
2023-04-16T14:02:53.743Z,21.75
2023-04-16T14:05:20.781Z,21.02
2023-04-16T14:07:47.736Z,25.83
2023-04-16T14:10:37.060Z,24.85
2023-04-16T14:13:08.183Z,26.23
2023-04-16T14:15:34.949Z,26.45
2023-04-16T14:18:02.621Z,22.88
2023-04-16T14:20:29.370Z,22.05
2023-04-16T14:22:56.265Z,21.67
2023-04-16T14:25:24.572Z,24.13
2023-04-16T14:28:03.212Z,23.20
2023-04-16T14:30:30.233Z,25.13
2023-04-16T14:32:57.163Z,23.25
2023-04-16T14:35:24.063Z,28.77
2023-04-16T14:37:51.058Z,28.45
2023-04-16T14:40:17.971Z,23.55
2023-04-16T14:42:46.318Z,26.80
2023-04-16T14:45:13.068Z,29.77
2023-04-16T14:47:45.870Z,30.58
2023-04-16T14:50:13.639Z,28.98
2023-04-16T14:52:40.622Z,25.90
2023-04-16T14:55:07.710Z,28.92
2023-04-16T14:57:35.352Z,27.00
2023-04-16T15:00:10.527Z,31.73
2023-04-16T15:02:37.958Z,25.98
2023-04-16T15:05:05.277Z,31.60
2023-04-16T15:07:32.557Z,30.35
2023-04-16T15:09:59.418Z,24.67
2023-04-16T15:12:26.524Z,23.17
2023-04-16T15:14:53.377Z,33.58
2023-04-16T15:17:20.848Z,24.45
2023-04-16T15:19:47.789Z,27.42
2023-04-16T15:22:17.305Z,24.65
2023-04-16T15:24:44.261Z,20.67
2023-04-16T15:27:11.984Z,25.10
2023-04-16T15:29:38.816Z,28.27
2023-04-16T15:32:06.986Z,28.15
2023-04-16T15:34:33.862Z,23.00
2023-04-16T15:37:00.660Z,22.73
2023-04-16T15:39:31.099Z,22.45
2023-04-16T15:44:39.011Z,18.92
2023-04-16T15:47:07.843Z,21.00
2023-04-16T15:49:35.458Z,18.67
2023-04-16T15:52:02.493Z,20.15
2023-04-16T15:54:30.701Z,20.60
2023-04-16T15:56:58.667Z,21.13
2023-04-16T15:59:28.256Z,19.98
2023-04-16T16:01:55.091Z,18.33
2023-04-16T16:04:22.827Z,18.75
2023-04-16T16:06:50.749Z,19.25
2023-04-16T16:09:17.686Z,18.33
2023-04-16T16:11:44.477Z,20.95
2023-04-16T16:14:11.231Z,14.90
2023-04-16T16:16:39.396Z,22.25
2023-04-16T16:19:06.248Z,19.65
2023-04-16T16:21:33.077Z,17.90
2023-04-16T16:23:59.918Z,15.55
2023-04-16T16:26:27.109Z,17.58
2023-04-16T16:28:53.885Z,15.90
2023-04-16T16:31:21.030Z,19.67
2023-04-16T16:33:47.905Z,15.55
2023-04-16T16:36:14.758Z,16.65
2023-04-16T16:38:42.427Z,19.00
2023-04-16T16:41:09.312Z,17.45
2023-04-16T16:43:38.901Z,20.88
2023-04-16T16:46:07.390Z,18.60
2023-04-16T16:48:34.383Z,20.15
2023-04-16T16:51:01.412Z,18.20
2023-04-16T16:53:28.256Z,19.50
2023-04-16T16:55:55.085Z,19.95
2023-04-16T16:58:21.842Z,25.02
2023-04-16T17:00:48.729Z,20.73
2023-04-16T17:03:15.753Z,22.80
2023-04-16T17:05:42.596Z,21.05
2023-04-16T17:08:09.388Z,24.17
2023-04-16T17:10:36.272Z,21.15
2023-04-16T17:13:03.171Z,24.85
2023-04-16T17:15:30.074Z,24.15
2023-04-16T17:18:22.132Z,26.30
2023-04-16T17:20:48.867Z,20.67
2023-04-16T17:23:15.835Z,26.98
2023-04-16T17:25:42.723Z,26.02
2023-04-16T17:28:09.547Z,29.38
2023-04-16T17:30:36.627Z,28.98
2023-04-16T17:33:04.647Z,32.13
2023-04-16T17:35:31.767Z,31.08
2023-04-16T17:37:58.527Z,31.05
2023-04-16T17:40:25.665Z,29.75
2023-04-16T17:42:52.444Z,25.75
2023-04-16T17:45:19.291Z,29.00
2023-04-16T17:47:46.066Z,29.23
2023-04-16T17:50:12.945Z,32.70
2023-04-16T17:52:39.769Z,29.95
2023-04-16T17:55:07.700Z,29.45
2023-04-16T17:57:34.577Z,29.80
2023-04-16T18:00:01.420Z,34.60
2023-04-16T18:02:28.364Z,33.25
2023-04-16T18:04:55.509Z,34.47
2023-04-16T18:07:22.584Z,44.42
2023-04-16T18:09:49.358Z,35.50
2023-04-16T18:12:16.556Z,44.53
2023-04-16T18:14:44.732Z,31.95
2023-04-16T18:17:13.115Z,38.20
2023-04-16T18:19:56.697Z,40.33
2023-04-16T18:22:24.800Z,35.20
2023-04-16T18:24:53.010Z,40.63
2023-04-16T18:27:21.574Z,39.85
2023-04-16T18:30:32.075Z,44.58
2023-04-16T18:35:28.649Z,44.75
2023-04-16T18:37:55.437Z,45.28
2023-04-16T18:40:22.166Z,43.00
2023-04-16T18:42:48.946Z,41.38
2023-04-16T18:45:21.160Z,43.53
2023-04-16T18:47:50.144Z,42.03
2023-04-16T18:50:17.003Z,38.70
2023-04-16T18:52:43.770Z,42.85
2023-04-16T18:55:10.685Z,42.67
2023-04-16T18:57:37.513Z,44.03
2023-04-16T19:00:09.336Z,40.38
2023-04-16T19:02:36.225Z,39.25
2023-04-16T19:05:03.129Z,36.90
2023-04-16T19:07:29.986Z,39.25
2023-04-16T19:09:56.878Z,36.70
2023-04-16T19:12:23.823Z,32.85
2023-04-16T19:14:50.611Z,36.83
2023-04-16T19:17:17.340Z,34.20
2023-04-16T19:19:44.231Z,35.80
2023-04-16T19:22:11.200Z,44.20
2023-04-16T19:24:38.144Z,41.55
2023-04-16T19:27:04.952Z,41.05
2023-04-16T19:29:56.546Z,43.17
2023-04-16T19:32:24.194Z,41.17
2023-04-16T19:34:51.021Z,39.05
2023-04-16T19:37:17.763Z,37.13
2023-04-16T19:39:44.522Z,41.17
2023-04-16T19:42:11.335Z,36.47
2023-04-16T19:44:38.108Z,36.75
2023-04-16T19:47:06.435Z,35.25
2023-04-16T19:49:34.547Z,35.35
2023-04-16T19:52:01.604Z,31.95
2023-04-16T19:54:28.761Z,32.22
2023-04-16T19:56:55.491Z,35.08
2023-04-16T19:59:22.321Z,35.38
2023-04-16T20:01:51.670Z,36.72
2023-04-16T20:04:18.643Z,37.53
2023-04-16T20:06:45.470Z,45.80
2023-04-16T20:09:12.613Z,36.88
2023-04-16T20:11:39.650Z,31.80
2023-04-16T20:14:06.386Z,36.97
2023-04-16T20:16:33.751Z,45.83
2023-04-16T20:19:03.652Z,34.30
2023-04-16T20:21:34.125Z,41.35
2023-04-16T20:24:00.834Z,37.25
2023-04-16T20:26:33.651Z,43.92
2023-04-16T20:29:00.877Z,43.03
2023-04-16T20:31:27.743Z,42.42
2023-04-16T20:33:54.702Z,41.47
2023-04-16T20:36:21.767Z,41.83
2023-04-16T20:38:48.603Z,43.80
2023-04-16T20:41:21.141Z,37.17
2023-04-16T20:43:50.212Z,45.90
2023-04-16T20:46:17.778Z,40.45
2023-04-16T20:48:44.778Z,38.70
2023-04-16T20:51:11.611Z,34.45
2023-04-16T20:53:38.417Z,35.90
2023-04-16T20:56:06.627Z,39.95
2023-04-16T20:58:33.476Z,38.15
2023-04-16T21:01:00.713Z,41.20
2023-04-16T21:03:27.669Z,37.33
2023-04-16T21:05:55.816Z,45.03
2023-04-16T21:08:23.472Z,34.70
2023-04-16T21:10:51.184Z,37.42
2023-04-16T21:13:18.705Z,35.10
2023-04-16T21:15:45.963Z,41.25
2023-04-16T21:18:13.302Z,46.50
2023-04-16T21:20:40.456Z,47.10
2023-04-16T21:23:07.749Z,44.60
2023-04-16T21:25:34.560Z,36.80
2023-04-16T21:28:01.335Z,36.33
2023-04-16T21:30:33.545Z,39.65
2023-04-16T21:33:03.324Z,39.28
2023-04-16T21:35:33.653Z,37.25
2023-04-16T21:38:41.131Z,41.75
2023-04-16T21:41:40.898Z,53.00
2023-04-16T21:44:07.721Z,41.10
2023-04-16T21:46:37.254Z,45.83
2023-04-16T21:49:04.202Z,46.28
2023-04-16T21:51:31.218Z,45.42
2023-04-16T21:53:58.372Z,50.30
2023-04-16T21:56:25.965Z,45.58
2023-04-16T21:58:52.824Z,40.20
2023-04-16T22:01:19.598Z,37.92
2023-04-16T22:03:50.546Z,39.55
2023-04-16T22:06:17.900Z,52.20
2023-04-16T22:08:44.674Z,45.47
2023-04-16T22:11:11.873Z,41.60
2023-04-16T22:13:42.108Z,50.17
2023-04-16T22:16:11.504Z,51.85
2023-04-16T22:18:38.701Z,53.88
2023-04-16T22:21:05.552Z,53.42
2023-04-16T22:23:32.534Z,56.78
2023-04-16T22:25:59.269Z,49.03
2023-04-16T22:28:26.319Z,55.70
2023-04-16T22:30:53.245Z,58.95
2023-04-16T22:33:20.258Z,52.38
2023-04-16T22:35:47.158Z,51.70
2023-04-16T22:38:14.044Z,51.53
2023-04-16T22:40:41.105Z,58.20
2023-04-16T22:43:07.938Z,51.15
2023-04-16T22:45:35.919Z,60.15
2023-04-16T22:48:02.915Z,54.17
2023-04-16T22:50:31.196Z,68.20
2023-04-16T22:52:58.331Z,57.88
2023-04-16T22:55:25.535Z,61.55
2023-04-16T22:57:52.487Z,60.78
2023-04-16T23:00:19.416Z,54.85
2023-04-16T23:02:46.504Z,63.58
2023-04-16T23:05:13.457Z,68.55
2023-04-16T23:07:40.559Z,49.25
2023-04-16T23:10:08.662Z,56.80
2023-04-16T23:12:38.807Z,64.78
2023-04-16T23:15:06.618Z,74.22
2023-04-16T23:17:35.111Z,69.68
2023-04-16T23:20:02.235Z,76.30
2023-04-16T23:22:29.117Z,69.75
2023-04-16T23:24:55.987Z,65.55
2023-04-16T23:27:22.830Z,67.32
2023-04-16T23:29:49.691Z,71.60
2023-04-16T23:32:16.648Z,69.40
2023-04-16T23:34:43.529Z,80.93
2023-04-16T23:37:10.339Z,73.72
2023-04-16T23:39:37.209Z,72.65
2023-04-16T23:42:04.014Z,60.08
2023-04-16T23:44:31.202Z,74.03
2023-04-16T23:46:58.185Z,67.22
2023-04-16T23:49:25.623Z,56.67
2023-04-16T23:51:52.472Z,60.28
2023-04-16T23:54:19.446Z,51.15
2023-04-16T23:56:46.171Z,58.67
2023-04-16T23:59:13.121Z,63.65
